Terminal Aerodrome Forecast
Issued by NWS

Home | Current Version | Previous Version | Text Only | Print | Product List | Glossary On
Versions: 1 2 3 4 5 6 7 8 9 10 11 12 13 14
945
FTUS45 KTFX 130530
TAFHLN
TAF
KHLN 130530Z 1306/1406 VRB05KT P6SM SCT070
     FM131000 27011KT P6SM VCSH SCT025 OVC040
      TEMPO 1311/1315 5SM -RASN BR BKN025
     FM131700 28015G25KT P6SM SCT040 BKN070
     FM132300 28012KT P6SM SCT150=

USA.gov is the U.S. government's official web portal to all federal, state and local government web resources and services.